AU-0110 weather

Murgenella Airstrip
Murganella, Northern Territory, Australia

Public forecast

Using degrees Celsius for public forecast. Weather courtesy of forecast.io.

METAR (pilot weather report)

Closest report is Darwin International Airport, 130.4 nm (241.6 km) WSW. Retrieved 2019/05/21 12:00 UTC (6 minutes ago):

YPDN 211200Z 05002KT CAVOK 26/22 Q1014 NOSIG

TAF (pilot weather forecast)

Closest forecast is Darwin International Airport, 130.4 nm (241.6 km) WSW. Retrieved 2019/05/21 12:00 UTC (6 minutes ago):

TAF YPDN 211124Z 2112/2218 08006KT CAVOK BECMG 2123/2124 10016G26KT CAVOK FM220500 09012KT CAVOK FM220800 03008KT CAVOK